createdAt,value
2019-05-06T00:00:24.966Z,68.37
2019-05-06T00:02:54.539Z,68.76
2019-05-06T00:05:25.076Z,69.50
2019-05-06T00:07:54.452Z,69.10
2019-05-06T00:10:28.977Z,68.69
2019-05-06T00:12:57.876Z,68.72
2019-05-06T00:15:26.867Z,69.09
2019-05-06T00:17:55.397Z,69.13
2019-05-06T00:20:24.498Z,69.08
2019-05-06T00:22:54.785Z,68.84
2019-05-06T00:25:30.971Z,70.21
2019-05-06T00:28:10.209Z,70.72
2019-05-06T00:30:40.243Z,71.28
2019-05-06T00:33:08.636Z,70.02
2019-05-06T00:35:37.120Z,70.24
2019-05-06T00:38:05.513Z,69.21
2019-05-06T00:40:35.536Z,69.55
2019-05-06T00:43:05.769Z,68.28
2019-05-06T00:45:34.249Z,69.10
2019-05-06T00:48:04.590Z,69.22
2019-05-06T00:50:34.730Z,69.25
2019-05-06T00:53:04.672Z,69.47
2019-05-06T00:55:33.779Z,69.88
2019-05-06T00:58:04.028Z,70.48
2019-05-06T01:00:33.859Z,70.70
2019-05-06T01:03:04.265Z,70.62
2019-05-06T01:05:33.732Z,70.92
2019-05-06T01:08:04.038Z,71.20
2019-05-06T01:10:34.384Z,71.35
2019-05-06T01:13:04.519Z,71.52
2019-05-06T01:15:34.358Z,71.62
2019-05-06T01:18:04.261Z,71.12
2019-05-06T01:20:33.977Z,72.27
2019-05-06T01:23:03.782Z,72.10
2019-05-06T01:25:34.455Z,71.46
2019-05-06T01:28:04.134Z,71.33
2019-05-06T01:30:33.729Z,70.75
2019-05-06T01:33:03.957Z,70.70
2019-05-06T01:35:32.437Z,71.00
2019-05-06T01:38:20.595Z,71.90
2019-05-06T01:40:59.781Z,72.56
2019-05-06T01:43:34.680Z,72.83
2019-05-06T01:46:04.685Z,72.84
2019-05-06T01:48:48.169Z,72.29
2019-05-06T01:51:21.172Z,71.87
2019-05-06T01:53:50.698Z,72.91
2019-05-06T01:56:19.260Z,73.08
2019-05-06T01:58:47.716Z,73.65
2019-05-06T02:01:16.115Z,72.75
2019-05-06T02:03:44.541Z,72.82
2019-05-06T02:06:14.117Z,72.15
2019-05-06T02:08:44.864Z,72.10
2019-05-06T02:11:14.868Z,72.42
2019-05-06T02:13:44.300Z,72.93
2019-05-06T02:16:14.618Z,73.06
2019-05-06T02:18:44.861Z,73.92
2019-05-06T02:21:23.847Z,74.07
2019-05-06T02:23:58.427Z,73.63
2019-05-06T02:26:26.883Z,73.49
2019-05-06T02:28:56.934Z,73.35
2019-05-06T02:31:45.907Z,74.18
2019-05-06T02:34:17.926Z,74.70
2019-05-06T02:36:47.950Z,75.11
2019-05-06T02:39:17.369Z,75.28
2019-05-06T02:41:45.747Z,74.73
2019-05-06T02:44:14.144Z,76.16
2019-05-06T02:46:44.320Z,74.37
2019-05-06T02:49:33.008Z,75.24
2019-05-06T02:52:03.031Z,76.05
2019-05-06T02:54:34.126Z,75.89
2019-05-06T02:57:04.087Z,76.19
2019-05-06T02:59:33.115Z,76.35
2019-05-06T03:02:03.298Z,76.74
2019-05-06T03:04:33.202Z,76.96
2019-05-06T03:07:03.643Z,77.81
2019-05-06T03:09:33.962Z,77.45
2019-05-06T03:12:03.916Z,76.70
2019-05-06T03:14:34.597Z,76.81
2019-05-06T03:17:03.749Z,75.35
2019-05-06T03:19:34.239Z,75.58
2019-05-06T03:22:04.391Z,75.80
2019-05-06T03:24:34.422Z,76.05
2019-05-06T03:27:04.538Z,76.33
2019-05-06T03:29:33.694Z,76.63
2019-05-06T03:32:06.778Z,77.05
2019-05-06T03:34:52.185Z,77.18
2019-05-06T03:37:07.281Z,77.40
2019-05-06T03:39:33.912Z,77.41
2019-05-06T03:42:04.659Z,77.65
2019-05-06T03:44:33.516Z,78.13
2019-05-06T03:47:23.206Z,78.08
2019-05-06T03:49:54.587Z,77.91
2019-05-06T03:52:23.284Z,78.27
2019-05-06T03:54:53.633Z,78.38
2019-05-06T03:57:24.069Z,78.37
2019-05-06T03:59:53.328Z,78.09
2019-05-06T04:02:24.064Z,77.70
2019-05-06T04:04:55.850Z,76.89
2019-05-06T04:07:23.373Z,75.94
2019-05-06T04:09:53.673Z,76.49
2019-05-06T04:12:23.856Z,76.98
2019-05-06T04:14:53.975Z,77.26
2019-05-06T04:17:43.955Z,76.90
2019-05-06T04:20:28.735Z,76.77
2019-05-06T04:22:59.435Z,76.00
2019-05-06T04:25:43.424Z,75.92
2019-05-06T04:28:23.930Z,74.42
2019-05-06T04:30:54.883Z,74.58
2019-05-06T04:33:23.786Z,74.58
2019-05-06T04:35:54.084Z,75.60
2019-05-06T04:38:23.663Z,75.82
2019-05-06T04:40:53.846Z,76.36
2019-05-06T04:43:26.853Z,76.24
2019-05-06T04:45:53.997Z,76.32
2019-05-06T04:48:23.802Z,76.75
2019-05-06T04:50:53.756Z,76.82
2019-05-06T04:53:26.395Z,76.83
2019-05-06T04:55:53.954Z,78.17
2019-05-06T04:58:23.411Z,78.33
2019-05-06T05:00:53.051Z,78.48
2019-05-06T05:03:22.886Z,78.06
2019-05-06T05:05:52.985Z,78.19
2019-05-06T05:08:23.512Z,78.68
2019-05-06T05:10:53.688Z,77.71
2019-05-06T05:13:23.819Z,76.22
2019-05-06T05:16:06.259Z,76.23
2019-05-06T05:18:36.329Z,76.53
2019-05-06T05:21:04.799Z,77.00
2019-05-06T05:23:33.192Z,75.18
2019-05-06T05:26:03.009Z,75.09
2019-05-06T05:28:32.330Z,74.75
2019-05-06T05:31:02.895Z,74.07
2019-05-06T05:33:32.725Z,72.95
2019-05-06T05:36:02.114Z,72.92
2019-05-06T05:38:32.058Z,72.38
2019-05-06T05:41:02.986Z,72.13
2019-05-06T05:43:52.655Z,72.41
2019-05-06T05:46:21.885Z,72.53
2019-05-06T05:48:54.672Z,70.13
2019-05-06T05:51:23.138Z,68.24
2019-05-06T05:53:52.464Z,66.93
2019-05-06T05:56:23.781Z,66.91
2019-05-06T05:58:53.546Z,66.45
2019-05-06T06:01:23.285Z,64.31
2019-05-06T06:03:52.762Z,63.25
2019-05-06T06:06:22.158Z,63.15
2019-05-06T06:08:52.375Z,61.24
2019-05-06T06:11:23.267Z,60.00
2019-05-06T06:13:52.372Z,60.52
2019-05-06T06:16:39.525Z,60.82
2019-05-06T06:19:18.851Z,59.14
2019-05-06T06:21:52.383Z,59.31
2019-05-06T06:24:22.744Z,58.83
2019-05-06T06:26:52.080Z,58.72
2019-05-06T06:29:22.653Z,57.38
2019-05-06T06:31:52.516Z,57.36
2019-05-06T06:34:22.622Z,57.04
2019-05-06T06:36:58.935Z,55.83
2019-05-06T06:39:32.675Z,55.80
2019-05-06T06:42:02.863Z,54.42
2019-05-06T06:44:33.222Z,52.78
2019-05-06T06:47:02.158Z,52.29
2019-05-06T06:49:32.748Z,53.37
2019-05-06T06:52:02.744Z,53.17
2019-05-06T06:54:32.374Z,53.30
2019-05-06T06:57:08.972Z,52.99
2019-05-06T06:59:37.533Z,53.59
2019-05-06T07:02:25.727Z,52.96
2019-05-06T07:04:57.098Z,50.01
2019-05-06T07:07:40.302Z,50.21
2019-05-06T07:09:57.386Z,49.75
2019-05-06T07:12:25.819Z,49.02
2019-05-06T07:15:02.174Z,48.86
2019-05-06T07:17:32.652Z,49.01
2019-05-06T07:20:02.910Z,47.45
2019-05-06T07:22:36.200Z,46.82
2019-05-06T07:25:08.217Z,45.41
2019-05-06T07:27:36.682Z,45.59
2019-05-06T07:30:08.910Z,46.21
2019-05-06T07:32:37.300Z,46.27
2019-05-06T07:35:06.429Z,46.15
2019-05-06T07:37:34.938Z,44.70
2019-05-06T07:40:05.155Z,44.07
2019-05-06T07:42:35.199Z,42.22
2019-05-06T07:45:06.536Z,42.61
2019-05-06T07:47:36.806Z,42.24
2019-05-06T07:50:07.042Z,42.68
2019-05-06T07:52:35.462Z,42.88
2019-05-06T07:55:04.739Z,42.72
2019-05-06T07:57:33.200Z,42.36
2019-05-06T08:00:03.327Z,41.87
2019-05-06T08:02:32.320Z,42.54
2019-05-06T08:05:02.623Z,41.62
2019-05-06T08:07:33.128Z,41.55
2019-05-06T08:10:02.136Z,40.21
2019-05-06T08:12:32.673Z,40.34
2019-05-06T08:15:04.510Z,38.87
2019-05-06T08:17:33.389Z,39.08
2019-05-06T08:20:02.639Z,38.63
2019-05-06T08:22:33.381Z,39.30
2019-05-06T08:25:03.501Z,38.79
2019-05-06T08:27:32.942Z,40.13
2019-05-06T08:30:02.405Z,38.43
2019-05-06T08:32:32.147Z,38.38
2019-05-06T08:35:03.123Z,40.22
2019-05-06T08:37:35.649Z,38.39
2019-05-06T08:40:06.481Z,37.38
2019-05-06T08:42:34.880Z,36.19
2019-05-06T08:45:03.371Z,38.00
2019-05-06T08:47:32.971Z,37.18
2019-05-06T08:50:09.350Z,37.16
2019-05-06T08:52:55.829Z,38.37
2019-05-06T08:55:32.582Z,37.88
2019-05-06T08:58:02.956Z,37.71
2019-05-06T09:00:34.078Z,37.30
2019-05-06T09:03:04.363Z,38.27
2019-05-06T09:05:33.070Z,37.14
2019-05-06T09:08:03.664Z,38.96
2019-05-06T09:10:32.535Z,37.65
2019-05-06T09:13:02.020Z,37.27
2019-05-06T09:15:32.555Z,35.59
2019-05-06T09:18:02.955Z,35.44
2019-05-06T09:20:32.600Z,35.92
2019-05-06T09:23:04.466Z,35.70
2019-05-06T09:25:32.267Z,36.03
2019-05-06T09:28:14.683Z,34.90
2019-05-06T09:30:44.742Z,35.75
2019-05-06T09:33:15.102Z,34.95
2019-05-06T09:35:43.501Z,34.62
2019-05-06T09:38:12.757Z,35.79
2019-05-06T09:40:43.314Z,35.10
2019-05-06T09:43:13.172Z,34.77
2019-05-06T09:45:42.571Z,35.49
2019-05-06T09:48:28.947Z,36.32
2019-05-06T09:50:57.617Z,37.17
2019-05-06T09:53:27.649Z,36.61
2019-05-06T09:56:03.122Z,35.72
2019-05-06T09:58:32.459Z,36.68
2019-05-06T10:01:02.758Z,36.59
2019-05-06T10:03:32.270Z,36.87
2019-05-06T10:06:02.709Z,36.53
2019-05-06T10:08:32.383Z,38.68
2019-05-06T10:11:03.036Z,35.98
2019-05-06T10:13:32.761Z,34.13
2019-05-06T10:16:02.968Z,34.02
2019-05-06T10:18:31.834Z,35.34
2019-05-06T10:21:01.015Z,31.39
2019-05-06T10:23:29.473Z,32.96
2019-05-06T10:25:57.931Z,33.47
2019-05-06T10:28:27.997Z,30.88
2019-05-06T10:30:56.739Z,31.63
2019-05-06T10:33:26.778Z,31.55
2019-05-06T10:35:56.901Z,30.05
2019-05-06T10:38:52.880Z,30.63
2019-05-06T10:41:24.376Z,29.25
2019-05-06T10:44:12.391Z,29.34
2019-05-06T10:46:43.044Z,30.23
2019-05-06T10:49:13.206Z,32.39
2019-05-06T10:51:52.968Z,32.55
2019-05-06T10:54:22.931Z,31.54
2019-05-06T10:56:57.416Z,30.12
2019-05-06T10:59:25.672Z,29.53
2019-05-06T11:02:05.396Z,30.10
2019-05-06T11:04:34.076Z,28.65
2019-05-06T11:07:04.043Z,28.00
2019-05-06T11:09:33.291Z,27.57
2019-05-06T11:12:03.265Z,30.75
2019-05-06T11:14:32.951Z,28.71
2019-05-06T11:17:04.918Z,29.45
2019-05-06T11:19:33.091Z,27.99
2019-05-06T11:22:03.657Z,27.64
2019-05-06T11:24:32.693Z,28.29
2019-05-06T11:27:03.488Z,29.53
2019-05-06T11:29:39.193Z,31.71
2019-05-06T11:32:27.593Z,31.19
2019-05-06T11:35:04.011Z,31.30
2019-05-06T11:37:47.041Z,32.05
2019-05-06T11:40:07.603Z,32.20
2019-05-06T11:42:36.111Z,32.37
2019-05-06T11:45:06.646Z,32.48
2019-05-06T11:47:35.045Z,34.50
2019-05-06T11:50:05.056Z,32.56
2019-05-06T11:52:34.616Z,33.23
2019-05-06T11:55:03.619Z,33.54
2019-05-06T11:57:32.639Z,33.69
2019-05-06T12:00:03.108Z,33.15
2019-05-06T12:02:32.995Z,33.48
2019-05-06T12:05:02.415Z,31.88
2019-05-06T12:07:33.034Z,32.51
2019-05-06T12:10:02.581Z,32.33
2019-05-06T12:12:31.124Z,32.16
2019-05-06T12:14:59.535Z,33.19
2019-05-06T12:17:27.942Z,32.98
2019-05-06T12:19:56.327Z,33.94
2019-05-06T12:22:26.392Z,34.17
2019-05-06T12:24:54.848Z,34.02
2019-05-06T12:27:43.078Z,35.03
2019-05-06T12:30:12.291Z,34.41
2019-05-06T12:32:43.359Z,34.26
2019-05-06T12:35:12.531Z,33.28
2019-05-06T12:37:44.019Z,33.93
2019-05-06T12:40:12.949Z,32.60
2019-05-06T12:42:43.327Z,33.95
2019-05-06T12:45:14.069Z,32.78
2019-05-06T12:47:44.097Z,32.63
2019-05-06T12:50:13.052Z,33.48
2019-05-06T12:52:44.101Z,34.28
2019-05-06T12:55:21.387Z,34.04
2019-05-06T12:57:43.195Z,33.45
2019-05-06T13:00:13.463Z,34.34
2019-05-06T13:02:43.622Z,33.13
2019-05-06T13:05:12.702Z,31.88
2019-05-06T13:07:47.616Z,33.21
2019-05-06T13:10:18.061Z,32.74
2019-05-06T13:12:48.126Z,32.87
2019-05-06T13:15:16.656Z,35.23
2019-05-06T13:17:45.050Z,34.75
2019-05-06T13:20:14.852Z,34.67
2019-05-06T13:22:44.960Z,35.68
2019-05-06T13:25:13.895Z,36.13
2019-05-06T13:27:43.012Z,35.67
2019-05-06T13:30:12.906Z,35.28
2019-05-06T13:32:45.922Z,35.02
2019-05-06T13:35:14.581Z,34.45
2019-05-06T13:37:42.981Z,34.71
2019-05-06T13:40:12.190Z,33.79
2019-05-06T13:42:42.586Z,32.63
2019-05-06T13:45:12.144Z,31.96
2019-05-06T13:47:44.995Z,33.18
2019-05-06T13:50:16.795Z,33.18
2019-05-06T13:52:46.455Z,34.51
2019-05-06T13:55:15.294Z,33.83
2019-05-06T13:57:43.709Z,33.72
2019-05-06T14:00:13.557Z,35.84
2019-05-06T14:02:53.249Z,35.46
2019-05-06T14:05:21.948Z,34.33
2019-05-06T14:07:52.748Z,34.61
2019-05-06T14:10:22.238Z,34.91
2019-05-06T14:12:53.003Z,33.98
2019-05-06T14:15:23.241Z,34.12
2019-05-06T14:17:53.189Z,34.11
2019-05-06T14:20:22.083Z,33.88
2019-05-06T14:22:52.664Z,35.16
2019-05-06T14:25:28.563Z,34.03
2019-05-06T14:27:58.597Z,34.04
2019-05-06T14:30:32.202Z,34.25
2019-05-06T14:33:00.683Z,33.77
2019-05-06T14:35:32.531Z,33.04
2019-05-06T14:38:03.133Z,32.37
2019-05-06T14:40:33.169Z,31.49
2019-05-06T14:43:02.226Z,31.80
2019-05-06T14:45:33.243Z,32.38
2019-05-06T14:48:01.824Z,32.92
2019-05-06T14:50:43.882Z,33.31
2019-05-06T14:53:02.549Z,33.47
2019-05-06T14:55:32.780Z,32.05
2019-05-06T14:58:04.270Z,33.48
2019-05-06T15:00:32.003Z,31.84
2019-05-06T15:03:02.223Z,32.31
2019-05-06T15:05:32.244Z,30.79
2019-05-06T15:08:00.803Z,32.12
2019-05-06T15:10:29.224Z,33.78
2019-05-06T15:12:57.621Z,31.73
2019-05-06T15:15:26.012Z,32.22
2019-05-06T15:17:54.439Z,32.07
2019-05-06T15:20:22.838Z,32.72
2019-05-06T15:22:52.937Z,33.57
2019-05-06T15:25:22.185Z,32.98
2019-05-06T15:27:52.976Z,33.78
2019-05-06T15:30:23.493Z,34.44
2019-05-06T15:32:52.947Z,34.64
2019-05-06T15:35:23.336Z,35.35
2019-05-06T15:37:56.029Z,35.55
2019-05-06T15:40:32.654Z,35.63
2019-05-06T15:42:54.636Z,36.39
2019-05-06T15:45:23.101Z,35.68
2019-05-06T15:47:52.357Z,35.77
2019-05-06T15:50:23.132Z,35.27
2019-05-06T15:52:53.895Z,35.63
2019-05-06T15:55:22.572Z,34.31
2019-05-06T15:57:52.626Z,35.59
2019-05-06T16:00:22.592Z,36.51
2019-05-06T16:02:52.993Z,36.73
2019-05-06T16:05:26.191Z,36.08
2019-05-06T16:07:52.932Z,36.71
2019-05-06T16:10:22.679Z,36.65
2019-05-06T16:12:53.442Z,36.47
2019-05-06T16:15:24.492Z,36.86
2019-05-06T16:17:53.161Z,37.61
2019-05-06T16:20:22.238Z,38.05
2019-05-06T16:22:52.439Z,37.35
2019-05-06T16:25:21.528Z,37.70
2019-05-06T16:27:54.511Z,38.39
2019-05-06T16:30:24.086Z,37.44
2019-05-06T16:32:52.664Z,37.96
2019-05-06T16:35:22.927Z,37.95
2019-05-06T16:37:51.424Z,39.38
2019-05-06T16:40:22.768Z,38.59
2019-05-06T16:42:53.395Z,38.58
2019-05-06T16:45:23.389Z,38.25
2019-05-06T16:47:52.361Z,38.67
2019-05-06T16:50:22.576Z,38.83
2019-05-06T16:52:52.592Z,39.55
2019-05-06T16:55:24.267Z,38.70
2019-05-06T16:57:57.515Z,40.06
2019-05-06T17:00:27.783Z,39.07
2019-05-06T17:03:00.193Z,38.04
2019-05-06T17:05:33.686Z,39.40
2019-05-06T17:08:03.211Z,40.61
2019-05-06T17:10:32.723Z,39.47
2019-05-06T17:13:02.900Z,39.23
2019-05-06T17:15:32.171Z,38.82
2019-05-06T17:18:03.052Z,40.15
2019-05-06T17:20:32.556Z,39.88
2019-05-06T17:23:02.871Z,40.79
2019-05-06T17:25:32.955Z,40.20
2019-05-06T17:28:03.319Z,41.73
2019-05-06T17:30:33.616Z,41.96
2019-05-06T17:33:18.522Z,42.15
2019-05-06T17:35:46.911Z,42.20
2019-05-06T17:38:16.948Z,43.28
2019-05-06T17:40:45.369Z,43.40
2019-05-06T17:43:14.063Z,41.46
2019-05-06T17:45:57.971Z,42.21
2019-05-06T17:48:32.034Z,42.79
2019-05-06T17:51:13.037Z,42.13
2019-05-06T17:53:48.662Z,42.25
2019-05-06T17:56:17.373Z,41.56
2019-05-06T17:58:45.732Z,41.70
2019-05-06T18:01:15.848Z,41.75
2019-05-06T18:03:44.253Z,41.45
2019-05-06T18:06:14.205Z,41.58
2019-05-06T18:08:43.379Z,41.52
2019-05-06T18:11:12.954Z,41.54
2019-05-06T18:13:41.466Z,43.00
2019-05-06T18:16:09.908Z,43.40
2019-05-06T18:18:38.313Z,42.46
2019-05-06T18:21:06.772Z,42.23
2019-05-06T18:23:35.203Z,43.67
2019-05-06T18:26:03.587Z,44.29
2019-05-06T18:28:32.732Z,44.64
2019-05-06T18:31:03.154Z,45.10
2019-05-06T18:33:32.631Z,46.20
2019-05-06T18:36:02.593Z,46.88
2019-05-06T18:38:33.531Z,45.87
2019-05-06T18:41:02.067Z,46.67
2019-05-06T18:43:32.669Z,47.14
2019-05-06T18:46:02.719Z,47.20
2019-05-06T18:48:32.511Z,47.83
2019-05-06T18:51:03.073Z,46.85
2019-05-06T18:53:33.143Z,45.79
2019-05-06T18:56:03.098Z,47.24
2019-05-06T18:58:32.099Z,48.70
2019-05-06T19:01:00.548Z,49.70
2019-05-06T19:03:31.979Z,50.54
2019-05-06T19:06:02.302Z,50.62
2019-05-06T19:08:42.408Z,49.83
2019-05-06T19:11:12.462Z,50.77
2019-05-06T19:13:40.857Z,49.40
2019-05-06T19:16:09.284Z,50.66
2019-05-06T19:18:38.806Z,50.07
2019-05-06T19:21:07.322Z,51.27
2019-05-06T19:23:35.736Z,52.53
2019-05-06T19:26:04.196Z,53.30
2019-05-06T19:28:32.988Z,52.22
2019-05-06T19:31:03.149Z,52.22
2019-05-06T19:33:34.131Z,50.04
2019-05-06T19:36:03.094Z,50.73
2019-05-06T19:38:32.993Z,50.42
2019-05-06T19:41:02.451Z,51.17
2019-05-06T19:43:32.870Z,50.48
2019-05-06T19:46:02.641Z,51.37
2019-05-06T19:48:32.825Z,51.50
2019-05-06T19:51:03.028Z,51.30
2019-05-06T19:53:32.264Z,50.69
2019-05-06T19:56:02.772Z,50.65
2019-05-06T19:58:31.712Z,50.85
2019-05-06T20:01:02.398Z,50.49
2019-05-06T20:03:32.744Z,50.94
2019-05-06T20:06:02.582Z,53.80
2019-05-06T20:08:47.733Z,54.76
2019-05-06T20:11:22.498Z,55.85
2019-05-06T20:13:52.468Z,55.10
2019-05-06T20:16:22.894Z,55.52
2019-05-06T20:18:52.567Z,55.79
2019-05-06T20:21:23.086Z,57.02
2019-05-06T20:23:52.576Z,56.99
2019-05-06T20:26:22.068Z,57.45
2019-05-06T20:28:52.440Z,57.16
2019-05-06T20:31:22.484Z,58.31
2019-05-06T20:33:52.698Z,58.69
2019-05-06T20:36:22.655Z,57.59
2019-05-06T20:38:50.945Z,58.01
2019-05-06T20:41:19.332Z,57.72
2019-05-06T20:43:47.721Z,58.05
2019-05-06T20:46:16.146Z,58.49
2019-05-06T20:48:44.533Z,58.52
2019-05-06T20:51:12.920Z,58.61
2019-05-06T20:53:43.185Z,58.89
2019-05-06T20:56:12.346Z,58.11
2019-05-06T20:58:42.036Z,56.94
2019-05-06T21:01:10.542Z,59.77
2019-05-06T21:03:38.931Z,60.45
2019-05-06T21:06:07.318Z,59.19
2019-05-06T21:08:35.722Z,58.62
2019-05-06T21:11:04.470Z,59.42
2019-05-06T21:13:35.537Z,61.96
2019-05-06T21:16:04.024Z,61.55
2019-05-06T21:18:32.605Z,61.98
2019-05-06T21:21:02.068Z,62.74
2019-05-06T21:23:32.076Z,62.20
2019-05-06T21:26:00.559Z,62.86
2019-05-06T21:28:28.938Z,63.27
2019-05-06T21:30:57.463Z,63.27
2019-05-06T21:33:25.852Z,62.33
2019-05-06T21:35:54.242Z,62.40
2019-05-06T21:38:22.877Z,62.42
2019-05-06T21:40:52.503Z,61.94
2019-05-06T21:43:22.694Z,62.70
2019-05-06T21:45:51.327Z,62.41
2019-05-06T21:48:22.070Z,62.27
2019-05-06T21:50:52.061Z,62.57
2019-05-06T21:53:20.028Z,62.57
2019-05-06T21:55:48.418Z,62.60
2019-05-06T21:58:16.808Z,62.81
2019-05-06T22:00:47.032Z,62.69
2019-05-06T22:03:15.587Z,62.79
2019-05-06T22:05:43.973Z,64.35
2019-05-06T22:08:13.040Z,63.25
2019-05-06T22:10:42.232Z,62.54
2019-05-06T22:13:14.302Z,62.96
2019-05-06T22:15:42.136Z,63.05
2019-05-06T22:18:12.439Z,63.44
2019-05-06T22:20:58.694Z,63.66
2019-05-06T22:23:28.707Z,63.67
2019-05-06T22:26:08.581Z,63.68
2019-05-06T22:28:27.250Z,63.88
2019-05-06T22:30:55.641Z,63.68
2019-05-06T22:33:24.029Z,63.98
2019-05-06T22:35:54.894Z,63.90
2019-05-06T22:38:22.851Z,64.16
2019-05-06T22:40:52.983Z,64.13
2019-05-06T22:43:21.972Z,65.59
2019-05-06T22:45:50.447Z,64.82
2019-05-06T22:48:18.841Z,64.61
2019-05-06T22:50:47.260Z,64.61
2019-05-06T22:53:15.645Z,64.68
2019-05-06T22:55:44.030Z,66.22
2019-05-06T22:58:12.457Z,66.62
2019-05-06T23:00:42.636Z,65.85
2019-05-06T23:03:12.691Z,65.65
2019-05-06T23:05:42.302Z,65.82
2019-05-06T23:08:12.262Z,65.88
2019-05-06T23:10:42.304Z,66.00
2019-05-06T23:13:12.488Z,66.14
2019-05-06T23:15:42.166Z,66.14
2019-05-06T23:18:10.534Z,67.12
2019-05-06T23:20:38.947Z,68.35
2019-05-06T23:23:07.335Z,68.74
2019-05-06T23:25:35.890Z,68.30
2019-05-06T23:28:04.474Z,68.00
2019-05-06T23:30:33.527Z,66.48
2019-05-06T23:33:02.345Z,65.20
2019-05-06T23:35:30.766Z,66.02
2019-05-06T23:38:35.316Z,67.20
2019-05-06T23:41:42.192Z,67.99
2019-05-06T23:44:47.378Z,68.39
2019-05-06T23:47:53.182Z,68.94
2019-05-06T23:50:58.251Z,69.08
2019-05-06T23:54:03.500Z,69.01
2019-05-06T23:56:45.504Z,68.55
2019-05-06T23:59:16.922Z,69.63
